createdAt,value
2018-05-13T00:01:04.627Z,24.62
2018-05-13T00:02:04.564Z,24.23
2018-05-13T00:03:56.295Z,25.10
2018-05-13T00:04:56.237Z,25.19
2018-05-13T00:06:48.003Z,21.45
2018-05-13T00:07:47.955Z,21.83
2018-05-13T00:09:39.688Z,21.54
2018-05-13T00:10:39.621Z,20.29
2018-05-13T00:12:31.372Z,17.61
2018-05-13T00:13:31.303Z,18.86
2018-05-13T00:15:23.076Z,20.10
2018-05-13T00:16:22.999Z,20.39
2018-05-13T00:18:14.755Z,21.06
2018-05-13T00:19:14.689Z,19.53
2018-05-13T00:21:06.663Z,20.29
2018-05-13T00:22:06.597Z,17.43
2018-05-13T00:23:58.349Z,19.24
2018-05-13T00:24:58.332Z,18.96
2018-05-13T00:26:50.076Z,17.71
2018-05-13T00:27:49.994Z,15.12
2018-05-13T00:29:41.750Z,14.17
2018-05-13T00:30:41.682Z,15.70
2018-05-13T00:32:33.432Z,16.08
2018-05-13T00:33:33.371Z,16.27
2018-05-13T00:35:25.141Z,14.36
2018-05-13T00:36:25.065Z,15.99
2018-05-13T00:38:16.828Z,14.73
2018-05-13T00:39:16.763Z,13.88
2018-05-13T00:41:08.530Z,12.83
2018-05-13T00:42:08.452Z,12.92
2018-05-13T00:44:00.209Z,13.12
2018-05-13T00:45:00.150Z,12.83
2018-05-13T00:46:51.905Z,11.77
2018-05-13T00:47:51.838Z,11.10
2018-05-13T00:49:43.594Z,12.06
2018-05-13T00:50:43.611Z,11.96
2018-05-13T00:52:35.293Z,12.83
2018-05-13T00:53:35.219Z,12.26
2018-05-13T00:55:26.986Z,12.16
2018-05-13T00:56:26.918Z,11.77
2018-05-13T00:58:18.673Z,9.76
2018-05-13T00:59:18.610Z,8.99
2018-05-13T01:01:10.401Z,6.70
2018-05-13T01:02:10.341Z,8.04
2018-05-13T01:04:02.082Z,7.65
2018-05-13T01:05:02.023Z,7.27
2018-05-13T01:06:53.824Z,6.60
2018-05-13T01:07:53.760Z,6.70
2018-05-13T01:09:45.534Z,7.56
2018-05-13T01:10:45.476Z,5.93
2018-05-13T01:12:37.277Z,6.70
2018-05-13T01:13:37.202Z,5.74
2018-05-13T01:15:28.995Z,7.84
2018-05-13T01:16:28.911Z,7.37
2018-05-13T01:18:20.668Z,6.51
2018-05-13T01:19:20.605Z,6.70
2018-05-13T01:21:12.393Z,6.60
2018-05-13T01:22:12.320Z,6.02
2018-05-13T01:24:04.070Z,4.11
2018-05-13T01:25:04.010Z,4.49
2018-05-13T01:26:55.801Z,4.11
2018-05-13T01:27:55.724Z,3.92
2018-05-13T01:29:47.523Z,3.83
2018-05-13T01:30:47.449Z,4.40
2018-05-13T01:32:39.255Z,3.83
2018-05-13T01:33:39.177Z,2.97
2018-05-13T01:35:30.938Z,3.25
2018-05-13T01:36:30.879Z,2.77
2018-05-13T01:38:22.641Z,2.29
2018-05-13T01:39:22.572Z,3.06
2018-05-13T01:41:14.333Z,2.39
2018-05-13T01:42:14.272Z,2.10
2018-05-13T01:44:06.046Z,2.77
2018-05-13T01:45:05.988Z,2.10
2018-05-13T01:46:57.782Z,1.43
2018-05-13T01:47:57.711Z,0.48
2018-05-13T01:49:49.461Z,0.57
2018-05-13T01:50:49.396Z,0.76
2018-05-13T01:52:41.180Z,0.00
2018-05-13T01:53:41.102Z,0.00
2018-05-13T01:55:32.854Z,0.00
2018-05-13T01:56:32.796Z,0.29
2018-05-13T01:58:24.568Z,0.00
2018-05-13T01:59:24.491Z,0.00
2018-05-13T02:01:16.270Z,0.00
2018-05-13T02:02:16.181Z,0.00
2018-05-13T02:04:07.928Z,0.00
2018-05-13T02:05:07.868Z,0.00
2018-05-13T02:06:59.647Z,0.00
2018-05-13T02:07:59.574Z,0.00
2018-05-13T02:09:51.323Z,0.00
2018-05-13T02:10:51.258Z,0.00
2018-05-13T02:12:43.021Z,0.00
2018-05-13T02:13:42.948Z,0.00
2018-05-13T02:15:34.709Z,0.00
2018-05-13T02:16:34.650Z,0.00
2018-05-13T02:18:26.429Z,0.00
2018-05-13T02:19:26.352Z,0.00
2018-05-13T02:21:18.100Z,0.00
2018-05-13T02:22:18.043Z,0.00
2018-05-13T02:24:09.799Z,0.00
2018-05-13T02:25:09.729Z,0.00
2018-05-13T02:27:01.505Z,0.00
2018-05-13T02:28:01.432Z,0.00
2018-05-13T02:29:53.200Z,0.00
2018-05-13T02:30:53.130Z,0.00
2018-05-13T02:32:44.914Z,0.00
2018-05-13T02:33:44.837Z,0.00
2018-05-13T02:35:36.589Z,0.00
2018-05-13T02:36:36.528Z,0.00
2018-05-13T02:38:28.315Z,0.00
2018-05-13T02:39:28.241Z,0.00
2018-05-13T02:41:20.026Z,0.00
2018-05-13T02:42:19.968Z,0.00
2018-05-13T02:44:11.745Z,0.00
2018-05-13T02:45:11.668Z,0.00
2018-05-13T02:47:03.449Z,0.00
2018-05-13T02:48:03.380Z,0.00
2018-05-13T02:49:55.145Z,0.00
2018-05-13T02:50:55.118Z,0.00
2018-05-13T02:52:46.846Z,0.00
2018-05-13T02:53:46.772Z,0.00
2018-05-13T02:55:38.555Z,0.00
2018-05-13T02:56:38.491Z,0.00
2018-05-13T02:58:30.289Z,0.00
2018-05-13T02:59:30.235Z,0.00
2018-05-13T03:01:22.000Z,0.00
2018-05-13T03:02:21.941Z,0.00
2018-05-13T03:04:13.712Z,0.00
2018-05-13T03:05:13.638Z,0.00
2018-05-13T03:07:05.389Z,0.00
2018-05-13T03:08:05.326Z,0.00
2018-05-13T03:09:57.090Z,0.00
2018-05-13T03:10:57.013Z,0.00
2018-05-13T03:12:48.782Z,0.00
2018-05-13T03:13:48.704Z,0.00
2018-05-13T03:15:40.478Z,0.00
2018-05-13T03:16:40.414Z,0.00
2018-05-13T03:18:32.188Z,0.00
2018-05-13T03:19:32.110Z,0.00
2018-05-13T03:21:23.870Z,0.00
2018-05-13T03:22:23.811Z,0.00
2018-05-13T03:24:15.617Z,0.00
2018-05-13T03:25:15.540Z,0.00
2018-05-13T03:27:07.287Z,0.00
2018-05-13T03:28:07.248Z,0.00
2018-05-13T03:29:58.987Z,0.00
2018-05-13T03:30:58.915Z,0.00
2018-05-13T03:32:50.675Z,0.00
2018-05-13T03:33:50.614Z,0.00
2018-05-13T03:35:42.407Z,0.00
2018-05-13T03:36:42.327Z,0.00
2018-05-13T03:38:34.093Z,0.00
2018-05-13T03:39:34.023Z,0.00
2018-05-13T03:41:25.788Z,0.00
2018-05-13T03:42:25.725Z,0.00
2018-05-13T03:44:17.483Z,0.00
2018-05-13T03:45:17.410Z,0.00
2018-05-13T03:47:09.160Z,0.00
2018-05-13T03:48:09.098Z,0.00
2018-05-13T03:50:00.859Z,0.00
2018-05-13T03:51:00.788Z,0.00
2018-05-13T03:52:52.547Z,0.00
2018-05-13T03:53:52.480Z,0.00
2018-05-13T03:55:44.247Z,0.00
2018-05-13T03:56:44.172Z,0.00
2018-05-13T03:58:35.957Z,0.00
2018-05-13T03:59:35.927Z,0.00
2018-05-13T04:01:27.675Z,0.00
2018-05-13T04:02:27.602Z,0.00
2018-05-13T04:04:19.386Z,0.00
2018-05-13T04:05:19.313Z,0.00
2018-05-13T04:07:11.080Z,0.00
2018-05-13T04:08:11.018Z,0.00
2018-05-13T04:10:02.786Z,0.00
2018-05-13T04:11:02.712Z,0.00
2018-05-13T04:12:54.480Z,0.00
2018-05-13T04:13:54.412Z,0.00
2018-05-13T04:15:46.186Z,0.00
2018-05-13T04:16:46.109Z,0.00
2018-05-13T04:18:37.875Z,0.00
2018-05-13T04:19:37.819Z,0.00
2018-05-13T04:21:29.590Z,0.00
2018-05-13T04:22:29.511Z,0.00
2018-05-13T04:24:21.312Z,0.00
2018-05-13T04:25:21.238Z,0.00
2018-05-13T04:27:12.997Z,0.00
2018-05-13T04:28:12.935Z,0.00
2018-05-13T04:30:04.735Z,0.00
2018-05-13T04:31:04.661Z,0.00
2018-05-13T04:32:56.423Z,0.00
2018-05-13T04:33:56.361Z,0.00
2018-05-13T04:35:48.141Z,0.00
2018-05-13T04:36:48.060Z,0.00
2018-05-13T04:38:39.840Z,0.00
2018-05-13T04:39:39.761Z,0.00
2018-05-13T04:41:31.538Z,0.00
2018-05-13T04:42:31.457Z,0.00
2018-05-13T04:44:23.224Z,0.00
2018-05-13T04:45:23.160Z,0.00
2018-05-13T04:47:14.944Z,0.00
2018-05-13T04:48:14.868Z,0.00
2018-05-13T04:50:06.651Z,0.00
2018-05-13T04:51:06.571Z,0.00
2018-05-13T04:52:58.337Z,0.00
2018-05-13T04:53:58.267Z,0.00
2018-05-13T04:55:50.064Z,0.00
2018-05-13T04:56:49.989Z,0.00
2018-05-13T04:58:41.745Z,0.00
2018-05-13T04:59:41.683Z,0.00
2018-05-13T05:01:33.460Z,0.86
2018-05-13T05:02:33.390Z,2.01
2018-05-13T05:04:25.152Z,6.71
2018-05-13T05:05:25.092Z,7.67
2018-05-13T05:07:16.912Z,11.90
2018-05-13T05:08:16.797Z,18.33
2018-05-13T05:10:08.583Z,23.82
2018-05-13T05:11:08.515Z,33.03
2018-05-13T05:13:00.312Z,54.05
2018-05-13T05:14:00.242Z,61.29
2018-05-13T05:15:52.031Z,73.30
2018-05-13T05:16:51.954Z,79.36
2018-05-13T05:18:43.731Z,87.74
2018-05-13T05:19:43.660Z,92.55
2018-05-13T05:21:35.438Z,97.67
2018-05-13T05:22:35.380Z,97.72
2018-05-13T05:24:27.161Z,99.99
2018-05-13T05:25:27.098Z,99.99
2018-05-13T05:27:18.889Z,99.99
2018-05-13T05:28:18.805Z,99.99
2018-05-13T05:30:10.584Z,99.99
2018-05-13T05:31:10.525Z,99.36
2018-05-13T05:33:02.309Z,99.99
2018-05-13T05:34:02.240Z,99.99
2018-05-13T05:35:54.032Z,99.99
2018-05-13T05:36:53.964Z,99.99
2018-05-13T05:38:45.724Z,99.99
2018-05-13T05:39:45.664Z,99.99
2018-05-13T05:41:37.452Z,99.99
2018-05-13T05:42:37.368Z,99.99
2018-05-13T05:44:29.158Z,99.99
2018-05-13T05:45:29.101Z,99.99
2018-05-13T05:47:20.878Z,99.99
2018-05-13T05:48:20.902Z,99.99
2018-05-13T05:50:12.579Z,99.99
2018-05-13T05:51:12.520Z,99.99
2018-05-13T05:53:04.312Z,99.99
2018-05-13T05:54:04.241Z,99.99
2018-05-13T05:55:55.997Z,99.99
2018-05-13T05:56:55.949Z,99.99
2018-05-13T05:58:47.730Z,99.99
2018-05-13T05:59:47.667Z,99.60
2018-05-13T06:01:39.468Z,99.99
2018-05-13T06:02:39.401Z,99.99
2018-05-13T06:04:31.195Z,99.99
2018-05-13T06:05:31.146Z,99.99
2018-05-13T06:07:23.951Z,99.99
2018-05-13T06:08:23.883Z,99.99
2018-05-13T06:10:15.683Z,99.99
2018-05-13T06:11:15.623Z,99.99
2018-05-13T06:13:07.444Z,99.65
2018-05-13T06:14:07.351Z,99.99
2018-05-13T06:15:59.131Z,97.81
2018-05-13T06:16:59.078Z,97.33
2018-05-13T06:18:50.875Z,98.73
2018-05-13T06:19:50.802Z,99.02
2018-05-13T06:21:42.581Z,98.73
2018-05-13T06:22:42.518Z,99.46
2018-05-13T06:24:34.289Z,99.07
2018-05-13T06:25:34.486Z,97.52
2018-05-13T06:27:26.030Z,99.99
2018-05-13T06:28:25.961Z,99.99
2018-05-13T06:30:17.738Z,99.99
2018-05-13T06:31:17.689Z,99.75
2018-05-13T06:33:09.469Z,99.75
2018-05-13T06:34:09.398Z,98.49
2018-05-13T06:36:01.181Z,99.17
2018-05-13T06:37:01.125Z,99.36
2018-05-13T06:38:52.919Z,98.00
2018-05-13T06:39:52.872Z,95.33
2018-05-13T06:41:44.627Z,86.44
2018-05-13T06:42:44.577Z,85.53
2018-05-13T06:44:36.379Z,81.24
2018-05-13T06:45:36.282Z,77.10
2018-05-13T06:47:28.103Z,78.17
2018-05-13T06:48:28.009Z,76.22
2018-05-13T06:50:19.921Z,72.41
2018-05-13T06:51:19.780Z,72.17
2018-05-13T06:53:11.533Z,71.23
2018-05-13T06:54:11.446Z,71.62
2018-05-13T06:56:03.240Z,74.88
2018-05-13T06:57:03.182Z,73.85
2018-05-13T06:58:55.082Z,71.17
2018-05-13T06:59:54.987Z,69.29
2018-05-13T07:01:46.772Z,65.85
2018-05-13T07:02:46.787Z,63.93
2018-05-13T07:04:38.498Z,59.12
2018-05-13T07:05:38.435Z,57.65
2018-05-13T07:07:30.231Z,54.75
2018-05-13T07:08:30.167Z,53.03
2018-05-13T07:10:21.966Z,51.82
2018-05-13T07:11:21.889Z,52.89
2018-05-13T07:13:13.690Z,56.40
2018-05-13T07:14:13.624Z,56.54
2018-05-13T07:16:05.476Z,58.03
2018-05-13T07:17:05.420Z,56.14
2018-05-13T07:18:57.246Z,53.89
2018-05-13T07:19:57.181Z,54.99
2018-05-13T07:21:48.972Z,57.12
2018-05-13T07:22:48.915Z,56.37
2018-05-13T07:24:40.722Z,60.79
2018-05-13T07:25:40.662Z,59.63
2018-05-13T07:27:32.462Z,58.29
2018-05-13T07:28:32.631Z,58.15
2018-05-13T07:30:24.187Z,54.11
2018-05-13T07:31:24.126Z,51.61
2018-05-13T07:33:15.922Z,50.24
2018-05-13T07:34:15.857Z,49.14
2018-05-13T07:36:07.660Z,49.83
2018-05-13T07:37:07.618Z,49.44
2018-05-13T07:38:59.400Z,50.14
2018-05-13T07:39:59.335Z,49.32
2018-05-13T07:41:51.128Z,47.36
2018-05-13T07:42:51.107Z,49.90
2018-05-13T07:44:42.875Z,48.00
2018-05-13T07:45:42.822Z,46.83
2018-05-13T07:47:34.614Z,46.00
2018-05-13T07:48:34.546Z,45.61
2018-05-13T07:50:26.463Z,45.17
2018-05-13T07:51:26.359Z,47.46
2018-05-13T07:53:19.369Z,48.44
2018-05-13T07:54:18.098Z,49.19
2018-05-13T07:56:09.877Z,49.51
2018-05-13T07:57:09.825Z,49.80
2018-05-13T07:59:01.638Z,47.31
2018-05-13T08:00:01.569Z,46.34
2018-05-13T08:01:53.355Z,46.09
2018-05-13T08:02:53.306Z,44.96
2018-05-13T08:04:45.211Z,43.75
2018-05-13T08:05:45.030Z,44.51
2018-05-13T08:07:36.824Z,44.21
2018-05-13T08:08:36.775Z,45.00
2018-05-13T08:10:28.581Z,44.14
2018-05-13T08:11:28.520Z,44.78
2018-05-13T08:13:20.328Z,46.69
2018-05-13T08:14:20.289Z,45.92
2018-05-13T08:16:12.121Z,44.46
2018-05-13T08:17:12.011Z,44.73
2018-05-13T08:19:03.805Z,44.03
2018-05-13T08:20:03.757Z,45.32
2018-05-13T08:21:55.530Z,43.47
2018-05-13T08:22:55.467Z,43.74
2018-05-13T08:24:47.336Z,43.78
2018-05-13T08:25:47.280Z,42.16
2018-05-13T08:27:39.055Z,40.88
2018-05-13T08:28:39.002Z,41.40
2018-05-13T08:30:30.790Z,41.13
2018-05-13T08:31:30.718Z,41.63
2018-05-13T08:33:22.494Z,40.17
2018-05-13T08:34:22.446Z,39.94
2018-05-13T08:36:14.255Z,41.11
2018-05-13T08:37:14.189Z,41.15
2018-05-13T08:39:06.177Z,39.98
2018-05-13T08:40:06.106Z,40.08
2018-05-13T08:41:57.931Z,38.22
2018-05-13T08:42:57.863Z,38.38
2018-05-13T08:44:49.660Z,39.55
2018-05-13T08:45:49.587Z,39.59
2018-05-13T08:47:41.385Z,39.12
2018-05-13T08:48:41.353Z,37.95
2018-05-13T08:50:33.260Z,37.81
2018-05-13T08:51:33.198Z,39.04
2018-05-13T08:53:25.028Z,40.33
2018-05-13T08:54:24.999Z,40.72
2018-05-13T08:56:16.795Z,38.53
2018-05-13T08:57:16.702Z,37.87
2018-05-13T08:59:08.489Z,36.96
2018-05-13T09:00:08.466Z,37.31
2018-05-13T09:02:00.244Z,37.15
2018-05-13T09:03:00.180Z,38.49
2018-05-13T09:04:51.977Z,38.42
2018-05-13T09:05:51.917Z,38.34
2018-05-13T09:07:43.715Z,36.08
2018-05-13T09:08:43.657Z,36.84
2018-05-13T09:10:35.444Z,38.96
2018-05-13T09:11:35.385Z,39.37
2018-05-13T09:13:27.161Z,38.65
2018-05-13T09:14:27.159Z,37.25
2018-05-13T09:16:18.916Z,37.19
2018-05-13T09:17:18.848Z,36.23
2018-05-13T09:19:10.639Z,36.04
2018-05-13T09:20:10.588Z,34.96
2018-05-13T09:22:02.379Z,34.26
2018-05-13T09:23:02.319Z,34.32
2018-05-13T09:24:54.143Z,35.88
2018-05-13T09:25:54.054Z,35.41
2018-05-13T09:27:45.848Z,35.22
2018-05-13T09:28:45.789Z,35.77
2018-05-13T09:30:37.591Z,36.65
2018-05-13T09:31:37.525Z,37.33
2018-05-13T09:33:29.301Z,36.49
2018-05-13T09:34:29.254Z,34.71
2018-05-13T09:36:21.069Z,33.95
2018-05-13T09:37:21.001Z,33.95
2018-05-13T09:39:12.797Z,33.95
2018-05-13T09:40:12.743Z,33.65
2018-05-13T09:42:04.547Z,34.63
2018-05-13T09:43:04.486Z,34.44
2018-05-13T09:44:56.250Z,34.36
2018-05-13T09:45:56.318Z,35.14
2018-05-13T09:47:47.992Z,35.17
2018-05-13T09:48:47.926Z,35.53
2018-05-13T09:50:39.729Z,36.06
2018-05-13T09:51:39.664Z,37.45
2018-05-13T09:53:31.445Z,36.18
2018-05-13T09:54:31.392Z,37.02
2018-05-13T09:56:23.196Z,37.13
2018-05-13T09:57:23.131Z,37.52
2018-05-13T09:59:14.915Z,37.04
2018-05-13T10:00:14.874Z,37.46
2018-05-13T10:02:06.663Z,36.47
2018-05-13T10:03:06.590Z,35.57
2018-05-13T10:04:58.400Z,36.27
2018-05-13T10:05:58.332Z,36.00
2018-05-13T10:07:50.131Z,36.57
2018-05-13T10:08:50.065Z,35.38
2018-05-13T10:10:41.896Z,35.10
2018-05-13T10:11:41.797Z,35.51
2018-05-13T10:13:33.596Z,33.69
2018-05-13T10:14:33.530Z,33.65
2018-05-13T10:16:25.323Z,33.85
2018-05-13T10:17:25.255Z,34.75
2018-05-13T10:19:17.039Z,33.87
2018-05-13T10:20:17.004Z,33.59
2018-05-13T10:22:08.795Z,32.58
2018-05-13T10:23:08.729Z,32.60
2018-05-13T10:25:00.551Z,33.77
2018-05-13T10:26:00.459Z,32.71
2018-05-13T10:27:52.277Z,30.57
2018-05-13T10:28:52.194Z,30.26
2018-05-13T10:30:44.104Z,32.06
2018-05-13T10:31:43.969Z,31.49
2018-05-13T10:33:35.765Z,28.55
2018-05-13T10:34:35.699Z,30.02
2018-05-13T10:36:27.656Z,30.21
2018-05-13T10:37:27.495Z,30.73
2018-05-13T10:39:19.294Z,29.57
2018-05-13T10:40:19.230Z,31.35
2018-05-13T10:42:11.094Z,31.23
2018-05-13T10:43:11.026Z,31.23
2018-05-13T10:45:02.809Z,30.94
2018-05-13T10:46:02.760Z,30.84
2018-05-13T10:47:54.557Z,30.26
2018-05-13T10:48:54.497Z,30.76
2018-05-13T10:50:46.307Z,30.76
2018-05-13T10:51:46.241Z,29.17
2018-05-13T10:53:38.056Z,29.36
2018-05-13T10:54:37.988Z,30.22
2018-05-13T10:56:29.803Z,29.64
2018-05-13T10:57:29.729Z,28.38
2018-05-13T10:59:21.532Z,29.91
2018-05-13T11:00:21.483Z,29.63
2018-05-13T11:02:13.341Z,30.02
2018-05-13T11:03:13.277Z,29.81
2018-05-13T11:05:05.087Z,29.99
2018-05-13T11:06:05.049Z,31.45
2018-05-13T11:07:56.914Z,31.43
2018-05-13T11:08:56.855Z,32.70
2018-05-13T11:10:48.667Z,30.64
2018-05-13T11:11:48.619Z,30.52
2018-05-13T11:13:40.413Z,30.02
2018-05-13T11:14:40.351Z,30.61
2018-05-13T11:16:32.132Z,31.29
2018-05-13T11:17:32.079Z,32.75
2018-05-13T11:19:23.888Z,30.59
2018-05-13T11:20:23.813Z,30.88
2018-05-13T11:22:15.626Z,30.02
2018-05-13T11:23:15.553Z,30.01
2018-05-13T11:25:07.343Z,30.11
2018-05-13T11:26:07.298Z,30.11
2018-05-13T11:27:59.056Z,30.40
2018-05-13T11:28:58.995Z,31.08
2018-05-13T11:30:50.769Z,30.98
2018-05-13T11:31:50.723Z,29.33
2018-05-13T11:33:42.537Z,29.90
2018-05-13T11:34:42.434Z,31.26
2018-05-13T11:36:34.248Z,32.12
2018-05-13T11:37:34.190Z,33.69
2018-05-13T11:39:25.966Z,34.85
2018-05-13T11:40:25.905Z,33.98
2018-05-13T11:42:17.934Z,33.59
2018-05-13T11:43:17.887Z,34.17
2018-05-13T11:45:09.671Z,32.42
2018-05-13T11:46:09.605Z,33.59
2018-05-13T11:48:01.413Z,32.81
2018-05-13T11:49:01.350Z,33.01
2018-05-13T11:50:53.122Z,33.76
2018-05-13T11:51:53.200Z,33.57
2018-05-13T11:53:45.031Z,34.64
2018-05-13T11:54:44.851Z,34.06
2018-05-13T11:56:36.629Z,32.89
2018-05-13T11:57:36.562Z,33.67
2018-05-13T11:59:28.475Z,34.25
2018-05-13T12:00:28.300Z,34.17
2018-05-13T12:02:20.149Z,33.39
2018-05-13T12:03:20.060Z,33.98
2018-05-13T12:05:11.843Z,34.85
2018-05-13T12:06:11.766Z,33.78
2018-05-13T12:08:03.617Z,34.17
2018-05-13T12:09:03.505Z,33.69
2018-05-13T12:10:55.258Z,32.81
2018-05-13T12:11:55.202Z,33.59
2018-05-13T12:13:47.072Z,33.49
2018-05-13T12:14:46.963Z,33.67
2018-05-13T12:16:38.839Z,34.08
2018-05-13T12:17:38.761Z,34.16
2018-05-13T12:19:30.565Z,33.69
2018-05-13T12:20:30.492Z,33.57
2018-05-13T12:22:22.315Z,33.86
2018-05-13T12:23:22.205Z,33.67
2018-05-13T12:25:13.992Z,34.16
2018-05-13T12:26:13.951Z,34.54
2018-05-13T12:28:05.852Z,34.66
2018-05-13T12:29:05.791Z,34.25
2018-05-13T12:30:57.571Z,34.64
2018-05-13T12:31:57.514Z,34.46
2018-05-13T12:33:49.294Z,35.05
2018-05-13T12:34:49.216Z,34.08
2018-05-13T12:36:40.987Z,33.67
2018-05-13T12:37:40.927Z,34.54
2018-05-13T12:39:32.703Z,34.08
2018-05-13T12:40:32.638Z,33.69
2018-05-13T12:42:24.433Z,34.08
2018-05-13T12:43:24.372Z,33.59
2018-05-13T12:45:16.165Z,33.69
2018-05-13T12:46:16.092Z,33.11
2018-05-13T12:48:07.917Z,34.27
2018-05-13T12:49:07.855Z,33.69
2018-05-13T12:50:59.650Z,34.56
2018-05-13T12:51:59.580Z,34.56
2018-05-13T12:53:51.372Z,34.25
2018-05-13T12:54:51.302Z,34.54
2018-05-13T12:56:43.109Z,35.32
2018-05-13T12:57:43.039Z,35.71
2018-05-13T12:59:34.821Z,35.33
2018-05-13T13:00:34.756Z,34.85
2018-05-13T13:02:26.642Z,35.72
2018-05-13T13:03:26.488Z,35.05
2018-05-13T13:05:18.273Z,35.33
2018-05-13T13:06:18.258Z,34.95
2018-05-13T13:08:09.992Z,34.95
2018-05-13T13:09:10.004Z,34.16
2018-05-13T13:11:01.720Z,34.93
2018-05-13T13:12:01.661Z,35.24
2018-05-13T13:13:53.440Z,34.56
2018-05-13T13:14:53.388Z,34.16
2018-05-13T13:16:45.191Z,34.66
2018-05-13T13:17:45.113Z,34.46
2018-05-13T13:19:36.891Z,34.66
2018-05-13T13:20:36.818Z,34.36
2018-05-13T13:22:28.604Z,34.17
2018-05-13T13:23:28.545Z,35.14
2018-05-13T13:25:20.356Z,34.75
2018-05-13T13:26:20.298Z,34.56
2018-05-13T13:28:12.065Z,34.06
2018-05-13T13:29:12.013Z,34.54
2018-05-13T13:31:03.799Z,34.93
2018-05-13T13:32:03.723Z,35.05
2018-05-13T13:33:55.496Z,34.75
2018-05-13T13:34:55.450Z,34.85
2018-05-13T13:36:47.213Z,33.67
2018-05-13T13:37:47.139Z,34.74
2018-05-13T13:39:38.920Z,34.56
2018-05-13T13:40:38.853Z,34.54
2018-05-13T13:42:30.665Z,33.78
2018-05-13T13:43:30.597Z,33.76
2018-05-13T13:45:22.505Z,33.88
2018-05-13T13:46:22.318Z,34.17
2018-05-13T13:48:14.087Z,33.78
2018-05-13T13:49:14.029Z,33.76
2018-05-13T13:51:05.804Z,32.71
2018-05-13T13:52:05.741Z,32.79
2018-05-13T13:53:57.529Z,33.11
2018-05-13T13:54:57.468Z,32.91
2018-05-13T13:56:49.249Z,32.52
2018-05-13T13:57:49.183Z,33.98
2018-05-13T13:59:40.969Z,32.81
2018-05-13T14:00:40.909Z,32.62
2018-05-13T14:02:32.695Z,32.91
2018-05-13T14:03:32.620Z,33.49
2018-05-13T14:05:24.403Z,33.49
2018-05-13T14:06:24.411Z,32.71
2018-05-13T14:08:16.149Z,32.79
2018-05-13T14:09:16.097Z,33.47
2018-05-13T14:11:07.896Z,32.89
2018-05-13T14:12:07.826Z,33.47
2018-05-13T14:13:59.578Z,33.57
2018-05-13T14:14:59.521Z,34.16
2018-05-13T14:16:51.301Z,33.20
2018-05-13T14:17:51.230Z,33.11
2018-05-13T14:19:43.037Z,33.09
2018-05-13T14:20:43.091Z,32.79
2018-05-13T14:22:34.819Z,34.25
2018-05-13T14:23:34.732Z,33.09
2018-05-13T14:25:26.530Z,32.79
2018-05-13T14:26:26.461Z,32.60
2018-05-13T14:28:18.221Z,33.67
2018-05-13T14:29:18.238Z,34.06
2018-05-13T14:31:09.971Z,34.35
2018-05-13T14:32:09.909Z,34.16
2018-05-13T14:34:01.669Z,34.16
2018-05-13T14:35:01.626Z,33.67
2018-05-13T14:36:53.412Z,33.88
2018-05-13T14:37:53.353Z,33.57
2018-05-13T14:39:45.185Z,34.64
2018-05-13T14:40:45.077Z,34.16
2018-05-13T14:42:36.866Z,34.16
2018-05-13T14:43:36.797Z,33.47
2018-05-13T14:45:28.611Z,33.76
2018-05-13T14:46:28.513Z,33.67
2018-05-13T14:48:20.288Z,33.67
2018-05-13T14:49:20.219Z,34.06
2018-05-13T14:51:11.996Z,35.03
2018-05-13T14:52:11.924Z,33.67
2018-05-13T14:54:03.750Z,34.74
2018-05-13T14:55:03.655Z,35.22
2018-05-13T14:56:55.439Z,33.56
2018-05-13T14:57:55.368Z,33.56
2018-05-13T14:59:47.148Z,32.78
2018-05-13T15:00:47.092Z,33.75
2018-05-13T15:02:38.869Z,33.84
2018-05-13T15:03:38.799Z,33.65
2018-05-13T15:05:30.572Z,34.14
2018-05-13T15:06:30.509Z,34.43
2018-05-13T15:08:22.324Z,34.04
2018-05-13T15:09:22.282Z,33.96
2018-05-13T15:11:14.074Z,34.16
2018-05-13T15:12:13.971Z,34.06
2018-05-13T15:14:05.755Z,34.35
2018-05-13T15:15:05.696Z,34.16
2018-05-13T15:16:57.471Z,32.99
2018-05-13T15:17:57.398Z,33.67
2018-05-13T15:19:49.175Z,33.07
2018-05-13T15:20:49.110Z,33.65
2018-05-13T15:22:40.906Z,33.84
2018-05-13T15:23:40.833Z,34.04
2018-05-13T15:25:32.618Z,34.14
2018-05-13T15:26:32.563Z,33.65
2018-05-13T15:28:24.379Z,33.65
2018-05-13T15:29:24.307Z,33.56
2018-05-13T15:31:16.080Z,33.84
2018-05-13T15:32:16.022Z,34.14
2018-05-13T15:34:07.797Z,34.23
2018-05-13T15:35:07.733Z,34.62
2018-05-13T15:36:59.519Z,33.65
2018-05-13T15:37:59.444Z,32.97
2018-05-13T15:39:51.220Z,32.97
2018-05-13T15:40:51.157Z,32.97
2018-05-13T15:42:43.049Z,33.56
2018-05-13T15:43:42.902Z,33.07
2018-05-13T15:45:34.647Z,32.49
2018-05-13T15:46:34.590Z,32.87
2018-05-13T15:48:26.376Z,32.59
2018-05-13T15:49:26.303Z,32.78
2018-05-13T15:51:18.093Z,32.87
2018-05-13T15:52:18.057Z,32.28
2018-05-13T15:54:09.831Z,32.57
2018-05-13T15:55:09.763Z,33.06
2018-05-13T15:57:01.565Z,32.67
2018-05-13T15:58:01.501Z,32.86
2018-05-13T15:59:53.367Z,33.64
2018-05-13T16:00:53.289Z,33.92
2018-05-13T16:02:45.093Z,33.73
2018-05-13T16:03:45.025Z,33.84
2018-05-13T16:05:36.792Z,34.02
2018-05-13T16:06:36.774Z,33.73
2018-05-13T16:08:28.516Z,34.02
2018-05-13T16:09:28.444Z,34.12
2018-05-13T16:11:20.228Z,34.12
2018-05-13T16:12:20.263Z,34.51
2018-05-13T16:14:11.948Z,33.64
2018-05-13T16:15:11.881Z,33.54
2018-05-13T16:17:03.643Z,34.02
2018-05-13T16:18:03.590Z,33.64
2018-05-13T16:19:55.394Z,32.86
2018-05-13T16:20:55.306Z,34.12
2018-05-13T16:22:47.154Z,34.61
2018-05-13T16:23:47.076Z,34.80
2018-05-13T16:25:38.819Z,34.61
2018-05-13T16:26:38.760Z,35.09
2018-05-13T16:28:30.556Z,35.09
2018-05-13T16:29:30.460Z,34.41
2018-05-13T16:31:22.235Z,34.61
2018-05-13T16:32:22.177Z,35.19
2018-05-13T16:34:13.989Z,34.70
2018-05-13T16:35:13.927Z,34.49
2018-05-13T16:37:05.703Z,34.78
2018-05-13T16:38:05.639Z,34.51
2018-05-13T16:39:57.668Z,34.12
2018-05-13T16:40:57.562Z,34.99
2018-05-13T16:42:49.327Z,35.28
2018-05-13T16:43:49.263Z,35.09
2018-05-13T16:45:41.056Z,34.78
2018-05-13T16:46:41.010Z,34.59
2018-05-13T16:48:32.776Z,34.01
2018-05-13T16:49:32.703Z,34.69
2018-05-13T16:51:24.478Z,34.01
2018-05-13T16:52:24.418Z,34.78
2018-05-13T16:54:16.195Z,35.36
2018-05-13T16:55:16.113Z,34.01
2018-05-13T16:57:07.891Z,34.39
2018-05-13T16:58:07.837Z,34.30
2018-05-13T16:59:59.618Z,34.39
2018-05-13T17:00:59.539Z,34.01
2018-05-13T17:02:51.315Z,34.69
2018-05-13T17:03:51.256Z,34.97
2018-05-13T17:05:43.051Z,34.59
2018-05-13T17:06:42.981Z,35.07
2018-05-13T17:08:34.764Z,36.04
2018-05-13T17:09:34.695Z,34.67
2018-05-13T17:11:26.547Z,35.05
2018-05-13T17:12:26.501Z,34.86
2018-05-13T17:14:18.265Z,35.05
2018-05-13T17:15:18.200Z,34.86
2018-05-13T17:17:10.056Z,34.77
2018-05-13T17:18:09.958Z,35.25
2018-05-13T17:20:01.772Z,34.77
2018-05-13T17:21:01.723Z,35.25
2018-05-13T17:22:53.516Z,35.54
2018-05-13T17:23:53.418Z,35.25
2018-05-13T17:25:45.236Z,35.15
2018-05-13T17:26:45.167Z,34.96
2018-05-13T17:28:37.140Z,35.25
2018-05-13T17:29:37.078Z,35.35
2018-05-13T17:31:28.891Z,35.93
2018-05-13T17:32:28.816Z,35.91
2018-05-13T17:34:20.606Z,35.52
2018-05-13T17:35:20.528Z,35.91
2018-05-13T17:37:12.315Z,36.58
2018-05-13T17:38:12.246Z,36.40
2018-05-13T17:40:04.049Z,36.40
2018-05-13T17:41:03.981Z,36.40
2018-05-13T17:42:55.759Z,37.36
2018-05-13T17:43:55.700Z,37.07
2018-05-13T17:45:47.504Z,38.31
2018-05-13T17:46:47.429Z,37.34
2018-05-13T17:48:39.197Z,36.58
2018-05-13T17:49:39.183Z,37.15
2018-05-13T17:51:30.957Z,37.63
2018-05-13T17:52:30.889Z,36.96
2018-05-13T17:54:22.667Z,38.70
2018-05-13T17:55:22.602Z,38.60
2018-05-13T17:57:14.449Z,37.73
2018-05-13T17:58:14.330Z,38.60
2018-05-13T18:00:06.109Z,38.50
2018-05-13T18:01:06.038Z,39.26
2018-05-13T18:02:57.877Z,39.06
2018-05-13T18:03:57.773Z,39.36
2018-05-13T18:05:49.539Z,39.36
2018-05-13T18:06:49.554Z,38.89
2018-05-13T18:08:41.226Z,39.36
2018-05-13T18:09:41.166Z,39.26
2018-05-13T18:11:33.050Z,39.55
2018-05-13T18:12:32.885Z,40.81
2018-05-13T18:14:24.647Z,40.81
2018-05-13T18:15:24.587Z,41.29
2018-05-13T18:17:16.382Z,41.39
2018-05-13T18:18:16.314Z,41.08
2018-05-13T18:20:08.163Z,39.84
2018-05-13T18:21:08.091Z,40.40
2018-05-13T18:22:59.888Z,41.17
2018-05-13T18:23:59.802Z,41.36
2018-05-13T18:25:51.712Z,42.43
2018-05-13T18:26:51.523Z,41.75
2018-05-13T18:28:43.350Z,41.85
2018-05-13T18:29:43.242Z,41.73
2018-05-13T18:31:35.073Z,42.79
2018-05-13T18:32:35.006Z,43.18
2018-05-13T18:34:26.805Z,43.85